createdAt,value
2023-01-21T00:02:12.113Z,2.90
2023-01-21T00:04:41.749Z,2.90
2023-01-21T00:07:08.975Z,2.90
2023-01-21T00:09:36.251Z,2.90
2023-01-21T00:12:03.931Z,2.80
2023-01-21T00:14:31.706Z,2.80
2023-01-21T00:17:01.436Z,2.80
2023-01-21T00:19:30.724Z,2.80
2023-01-21T00:21:59.995Z,2.80
2023-01-21T00:24:31.778Z,2.80
2023-01-21T00:27:00.990Z,2.80
2023-01-21T00:29:28.139Z,2.80
2023-01-21T00:31:55.297Z,2.70
2023-01-21T00:34:22.477Z,2.70
2023-01-21T00:36:51.792Z,2.70
2023-01-21T00:39:21.517Z,2.60
2023-01-21T00:41:48.636Z,2.60
2023-01-21T00:44:16.417Z,2.60
2023-01-21T00:46:45.845Z,2.60
2023-01-21T00:49:13.006Z,2.60
2023-01-21T00:51:40.142Z,2.60
2023-01-21T00:54:09.525Z,2.50
2023-01-21T00:56:38.781Z,2.50
2023-01-21T00:59:08.497Z,2.50
2023-01-21T01:01:38.555Z,2.50
2023-01-21T01:04:11.070Z,2.50
2023-01-21T01:06:38.370Z,2.50
2023-01-21T01:09:05.597Z,2.50
2023-01-21T01:11:35.138Z,2.50
2023-01-21T01:14:02.569Z,2.50
2023-01-21T01:16:32.409Z,2.40
2023-01-21T01:19:03.920Z,2.40
2023-01-21T01:21:31.077Z,2.40
2023-01-21T01:24:01.862Z,2.40
2023-01-21T01:26:31.207Z,2.40
2023-01-21T01:29:02.758Z,2.30
2023-01-21T01:31:32.943Z,2.40
2023-01-21T01:34:02.624Z,2.30
2023-01-21T01:36:31.879Z,2.30
2023-01-21T01:38:59.203Z,2.30
2023-01-21T01:41:30.023Z,2.30
2023-01-21T01:44:24.245Z,2.30
2023-01-21T01:46:51.385Z,2.20
2023-01-21T01:49:24.570Z,2.20
2023-01-21T01:52:01.444Z,2.20
2023-01-21T01:54:53.315Z,2.20
2023-01-21T01:57:26.147Z,2.20
2023-01-21T01:59:55.782Z,2.20
2023-01-21T02:02:22.960Z,2.20
2023-01-21T02:04:58.131Z,2.20
2023-01-21T02:07:29.019Z,2.20
2023-01-21T02:09:56.526Z,2.20
2023-01-21T02:12:23.812Z,2.20
2023-01-21T02:14:51.247Z,2.10
2023-01-21T02:17:30.430Z,2.20
2023-01-21T02:20:29.609Z,2.10
2023-01-21T02:23:06.519Z,2.10
2023-01-21T02:25:45.307Z,2.10
2023-01-21T02:28:27.114Z,2.10
2023-01-21T02:31:14.935Z,2.10
2023-01-21T02:34:08.730Z,2.10
2023-01-21T02:36:43.373Z,2.10
2023-01-21T02:39:44.771Z,2.00
2023-01-21T02:42:39.682Z,2.00
2023-01-21T02:45:10.593Z,2.00
2023-01-21T02:48:13.844Z,2.00
2023-01-21T02:50:53.077Z,2.00
2023-01-21T02:53:33.804Z,2.00
2023-01-21T02:56:24.042Z,2.00
2023-01-21T02:59:02.792Z,2.00
2023-01-21T03:02:01.169Z,2.00
2023-01-21T03:05:09.004Z,2.00
2023-01-21T03:07:43.191Z,2.00
2023-01-21T03:10:22.686Z,2.00
2023-01-21T03:13:05.637Z,2.00
2023-01-21T03:16:10.565Z,2.00
2023-01-21T03:18:44.484Z,2.00
2023-01-21T03:21:16.903Z,2.00
2023-01-21T03:23:49.976Z,1.90
2023-01-21T03:26:23.332Z,1.90
2023-01-21T03:28:55.313Z,1.90
2023-01-21T03:31:28.341Z,1.90
2023-01-21T03:34:03.960Z,1.90
2023-01-21T03:36:55.361Z,1.90
2023-01-21T03:39:43.761Z,1.90
2023-01-21T03:42:11.465Z,1.90
2023-01-21T03:44:39.256Z,1.90
2023-01-21T03:47:20.672Z,1.90
2023-01-21T03:49:53.562Z,1.90
2023-01-21T03:52:25.103Z,1.90
2023-01-21T03:54:52.949Z,1.90
2023-01-21T03:57:20.069Z,1.90
2023-01-21T03:59:49.570Z,1.80
2023-01-21T04:02:20.285Z,1.80
2023-01-21T04:04:53.103Z,1.80
2023-01-21T04:07:22.824Z,1.80
2023-01-21T04:09:50.220Z,1.80
2023-01-21T04:12:17.696Z,1.80
2023-01-21T04:14:48.095Z,1.70
2023-01-21T04:17:17.759Z,1.70
2023-01-21T04:19:47.040Z,1.70
2023-01-21T04:22:16.341Z,1.70
2023-01-21T04:24:45.770Z,1.70
2023-01-21T04:27:15.392Z,1.70
2023-01-21T04:29:46.909Z,1.70
2023-01-21T04:32:14.013Z,1.60
2023-01-21T04:34:43.323Z,1.60
2023-01-21T04:37:12.490Z,1.60
2023-01-21T04:39:41.783Z,1.60
2023-01-21T04:42:13.733Z,1.60
2023-01-21T04:44:45.470Z,1.60
2023-01-21T04:47:14.874Z,1.50
2023-01-21T04:49:44.379Z,1.50
2023-01-21T04:52:16.153Z,1.60
2023-01-21T04:54:45.836Z,1.50
2023-01-21T04:57:12.970Z,1.50
2023-01-21T04:59:42.752Z,1.50
2023-01-21T05:02:09.977Z,1.50
2023-01-21T05:04:39.601Z,1.50
2023-01-21T05:07:07.108Z,1.50
2023-01-21T05:09:34.485Z,1.50
2023-01-21T05:12:07.148Z,1.50
2023-01-21T05:14:34.337Z,1.40
2023-01-21T05:17:03.725Z,1.40
2023-01-21T05:19:34.012Z,1.40
2023-01-21T05:22:01.281Z,1.40
2023-01-21T05:24:28.403Z,1.40
2023-01-21T05:26:55.545Z,1.40
2023-01-21T05:29:22.710Z,1.50
2023-01-21T05:31:50.020Z,1.50
2023-01-21T05:34:19.435Z,1.50
2023-01-21T05:36:48.949Z,1.50
2023-01-21T05:39:18.777Z,1.40
2023-01-21T05:41:48.884Z,1.40
2023-01-21T05:44:18.220Z,1.40
2023-01-21T05:46:47.618Z,1.40
2023-01-21T05:49:19.942Z,1.30
2023-01-21T05:51:47.071Z,1.40
2023-01-21T05:54:14.274Z,1.30
2023-01-21T05:56:41.418Z,1.30
2023-01-21T05:59:09.547Z,1.30
2023-01-21T06:01:38.949Z,1.30
2023-01-21T06:04:06.065Z,1.30
2023-01-21T06:06:33.706Z,1.30
2023-01-21T06:09:00.844Z,1.30
2023-01-21T06:11:27.996Z,1.30
2023-01-21T06:13:55.180Z,1.30
2023-01-21T06:16:22.269Z,1.30
2023-01-21T06:18:49.491Z,1.30
2023-01-21T06:21:16.618Z,1.40
2023-01-21T06:23:43.856Z,1.40
2023-01-21T06:26:11.465Z,1.40
2023-01-21T06:28:38.622Z,1.30
2023-01-21T06:31:05.949Z,1.30
2023-01-21T06:33:35.496Z,1.30
2023-01-21T06:36:04.966Z,1.30
2023-01-21T06:38:35.931Z,1.30
2023-01-21T06:41:03.605Z,1.30
2023-01-21T06:43:31.009Z,1.30
2023-01-21T06:45:58.210Z,1.30
2023-01-21T06:48:27.855Z,1.30
2023-01-21T06:50:59.715Z,1.30
2023-01-21T06:53:27.557Z,1.20
2023-01-21T06:55:57.492Z,1.30
2023-01-21T06:58:27.289Z,1.30
2023-01-21T07:00:59.372Z,1.30
2023-01-21T07:03:33.174Z,1.30
2023-01-21T07:06:02.420Z,1.30
2023-01-21T07:08:29.533Z,1.30
2023-01-21T07:10:56.671Z,1.20
2023-01-21T07:13:26.152Z,1.20
2023-01-21T07:15:53.342Z,1.20
2023-01-21T07:18:27.618Z,1.20
2023-01-21T07:20:59.637Z,1.10
2023-01-21T07:23:30.318Z,1.10
2023-01-21T07:25:58.001Z,1.10
2023-01-21T07:28:30.301Z,1.10
2023-01-21T07:31:10.846Z,1.10
2023-01-21T07:33:43.564Z,1.10
2023-01-21T07:36:10.720Z,1.00
2023-01-21T07:38:40.239Z,1.00
2023-01-21T07:41:07.416Z,1.00
2023-01-21T07:43:36.870Z,1.00
2023-01-21T07:46:04.177Z,1.00
2023-01-21T07:48:31.336Z,1.00
2023-01-21T07:51:02.445Z,1.00
2023-01-21T07:53:31.830Z,0.90
2023-01-21T07:56:02.898Z,0.90
2023-01-21T07:58:32.472Z,0.90
2023-01-21T08:01:05.296Z,0.90
2023-01-21T08:03:35.412Z,0.80
2023-01-21T08:06:06.409Z,0.80
2023-01-21T08:08:35.630Z,0.80
2023-01-21T08:11:05.410Z,0.80
2023-01-21T08:13:34.719Z,0.80
2023-01-21T08:16:01.872Z,0.80
2023-01-21T08:18:32.442Z,0.80
2023-01-21T08:21:00.209Z,0.90
2023-01-21T08:23:29.813Z,0.90
2023-01-21T08:25:56.972Z,0.90
2023-01-21T08:28:26.172Z,0.80
2023-01-21T08:31:02.136Z,0.80
2023-01-21T08:33:32.486Z,0.80
2023-01-21T08:36:04.388Z,0.80
2023-01-21T08:38:33.587Z,0.80
2023-01-21T08:41:03.412Z,0.80
2023-01-21T08:43:32.989Z,0.80
2023-01-21T08:46:01.743Z,0.80
2023-01-21T08:48:30.302Z,0.80
2023-01-21T08:51:02.894Z,0.80
2023-01-21T08:53:37.722Z,0.80
2023-01-21T08:56:08.026Z,0.80
2023-01-21T08:58:37.751Z,0.80
2023-01-21T09:01:09.496Z,0.90
2023-01-21T09:03:37.010Z,0.90
2023-01-21T09:06:06.964Z,0.90
2023-01-21T09:08:42.073Z,0.90
2023-01-21T09:11:11.762Z,0.90
2023-01-21T09:13:43.117Z,1.00
2023-01-21T09:16:14.891Z,1.10
2023-01-21T09:18:45.179Z,1.00
2023-01-21T09:21:15.246Z,1.10
2023-01-21T09:23:47.505Z,1.00
2023-01-21T09:26:17.167Z,1.00
2023-01-21T09:28:46.939Z,1.10
2023-01-21T09:31:16.792Z,1.00
2023-01-21T09:33:49.459Z,1.00
2023-01-21T09:36:21.296Z,1.00
2023-01-21T09:38:51.995Z,1.10
2023-01-21T09:41:27.363Z,1.10
2023-01-21T09:43:57.561Z,1.20
2023-01-21T09:46:30.699Z,1.20
2023-01-21T09:49:03.235Z,1.30
2023-01-21T09:52:09.013Z,1.30
2023-01-21T09:54:37.364Z,1.40
2023-01-21T09:57:16.768Z,1.40
2023-01-21T10:00:14.278Z,1.40
2023-01-21T10:02:50.378Z,1.50
2023-01-21T10:05:40.787Z,1.50
2023-01-21T10:08:13.425Z,1.50
2023-01-21T10:11:18.836Z,1.50
2023-01-21T10:14:16.135Z,1.60
2023-01-21T10:17:11.749Z,1.60
2023-01-21T10:20:11.630Z,1.60
2023-01-21T10:22:47.262Z,1.70
2023-01-21T10:25:27.833Z,1.70
2023-01-21T10:28:04.958Z,1.70
2023-01-21T10:30:42.320Z,1.70
2023-01-21T10:33:33.080Z,1.70
2023-01-21T10:36:35.001Z,1.70
2023-01-21T10:39:20.181Z,1.80
2023-01-21T10:42:03.211Z,1.80
2023-01-21T10:44:43.175Z,1.90
2023-01-21T10:47:16.048Z,1.90
2023-01-21T10:49:58.475Z,1.90
2023-01-21T10:52:58.492Z,2.00
2023-01-21T10:55:31.394Z,2.00
2023-01-21T10:58:28.831Z,2.10
2023-01-21T11:01:02.317Z,2.10
2023-01-21T11:03:41.397Z,2.10
2023-01-21T11:06:12.560Z,2.10
2023-01-21T11:08:43.066Z,2.20
2023-01-21T11:11:11.406Z,2.20
2023-01-21T11:13:41.710Z,2.20
2023-01-21T11:16:11.388Z,2.20
2023-01-21T11:18:41.957Z,2.20
2023-01-21T11:21:21.556Z,2.20
2023-01-21T11:23:59.391Z,2.20
2023-01-21T11:26:32.656Z,2.20
2023-01-21T11:29:17.474Z,2.30
2023-01-21T11:31:48.676Z,2.30
2023-01-21T11:34:23.131Z,2.30
2023-01-21T11:37:17.027Z,2.30
2023-01-21T11:39:59.156Z,2.30
2023-01-21T11:42:26.525Z,2.40
2023-01-21T11:45:24.991Z,2.40
2023-01-21T11:47:58.162Z,2.40
2023-01-21T11:50:33.092Z,2.50
2023-01-21T11:53:17.339Z,2.50
2023-01-21T11:55:53.672Z,2.50
2023-01-21T11:58:38.696Z,2.50
2023-01-21T12:01:09.048Z,2.50
2023-01-21T12:03:50.161Z,2.50
2023-01-21T12:06:23.209Z,2.50
2023-01-21T12:08:55.642Z,2.50
2023-01-21T12:11:26.732Z,2.40
2023-01-21T12:14:53.103Z,2.50
2023-01-21T12:17:46.845Z,2.40
2023-01-21T12:20:21.264Z,2.50
2023-01-21T12:23:26.117Z,2.40
2023-01-21T12:26:03.571Z,2.30
2023-01-21T12:28:40.819Z,2.20
2023-01-21T12:31:21.721Z,2.20
2023-01-21T12:34:01.120Z,2.20
2023-01-21T12:36:55.917Z,2.20
2023-01-21T12:39:37.651Z,2.10
2023-01-21T12:42:11.536Z,2.10
2023-01-21T12:44:50.875Z,1.80
2023-01-21T12:47:42.372Z,1.80
2023-01-21T12:50:27.132Z,1.80
2023-01-21T12:53:16.838Z,1.80
2023-01-21T12:56:01.394Z,1.70
2023-01-21T12:58:34.913Z,1.70
2023-01-21T13:01:11.196Z,1.70
2023-01-21T13:03:53.140Z,1.70
2023-01-21T13:06:53.208Z,1.80
2023-01-21T13:10:12.436Z,1.80
2023-01-21T13:12:46.403Z,1.90
2023-01-21T13:15:24.121Z,1.80
2023-01-21T13:17:59.228Z,1.80
2023-01-21T13:20:26.822Z,1.90
2023-01-21T13:22:59.038Z,1.90
2023-01-21T13:25:38.219Z,1.90
2023-01-21T13:28:23.847Z,2.00
2023-01-21T13:31:33.993Z,2.00
2023-01-21T13:34:26.988Z,2.00
2023-01-21T13:37:13.590Z,2.10
2023-01-21T13:39:43.703Z,2.10
2023-01-21T13:42:19.780Z,2.10
2023-01-21T13:45:25.729Z,2.20
2023-01-21T13:48:10.907Z,2.20
2023-01-21T13:51:19.910Z,2.20
2023-01-21T13:54:02.739Z,2.20
2023-01-21T13:56:45.446Z,2.20
2023-01-21T13:59:14.763Z,2.30
2023-01-21T14:02:00.807Z,2.30
2023-01-21T14:04:51.925Z,2.30
2023-01-21T14:07:55.800Z,2.40
2023-01-21T14:10:31.544Z,2.40
2023-01-21T14:13:33.443Z,2.40
2023-01-21T14:16:03.945Z,2.40
2023-01-21T14:18:37.235Z,2.30
2023-01-21T14:21:28.953Z,2.30
2023-01-21T14:24:11.014Z,2.30
2023-01-21T14:26:52.342Z,2.40
2023-01-21T14:29:22.180Z,2.40
2023-01-21T14:31:55.556Z,2.40
2023-01-21T14:34:25.100Z,2.40
2023-01-21T14:37:11.363Z,2.50
2023-01-21T14:39:53.939Z,2.50
2023-01-21T14:42:50.264Z,2.40
2023-01-21T14:45:22.255Z,2.40
2023-01-21T14:48:00.883Z,2.40
2023-01-21T14:50:48.415Z,2.50
2023-01-21T14:53:26.676Z,2.50
2023-01-21T14:56:16.585Z,2.50
2023-01-21T14:59:02.801Z,2.50
2023-01-21T15:01:47.270Z,2.50
2023-01-21T15:04:32.252Z,2.50
2023-01-21T15:07:09.086Z,2.50
2023-01-21T15:09:49.109Z,2.50
2023-01-21T15:12:24.173Z,2.50
2023-01-21T15:14:58.500Z,2.50
2023-01-21T15:18:05.202Z,2.50
2023-01-21T15:20:49.749Z,2.50
2023-01-21T15:23:37.960Z,2.50
2023-01-21T15:26:13.364Z,2.50
2023-01-21T15:28:55.845Z,2.50
2023-01-21T15:31:25.976Z,2.60
2023-01-21T15:34:07.168Z,2.60
2023-01-21T15:36:47.057Z,2.60
2023-01-21T15:39:19.304Z,2.50
2023-01-21T15:42:02.191Z,2.50
2023-01-21T15:45:09.742Z,2.50
2023-01-21T15:48:08.716Z,2.50
2023-01-21T15:50:46.436Z,2.50
2023-01-21T15:53:31.256Z,2.60
2023-01-21T15:56:41.805Z,2.60
2023-01-21T15:59:21.519Z,2.50
2023-01-21T16:02:07.561Z,2.50
2023-01-21T16:05:05.520Z,2.60
2023-01-21T16:07:57.640Z,2.50
2023-01-21T16:10:40.075Z,2.50
2023-01-21T16:13:28.130Z,2.50
2023-01-21T16:16:48.955Z,2.50
2023-01-21T16:19:33.859Z,2.60
2023-01-21T16:22:07.517Z,2.60
2023-01-21T16:24:47.504Z,2.60
2023-01-21T16:27:24.672Z,2.60
2023-01-21T16:30:01.641Z,2.60
2023-01-21T16:32:30.911Z,2.50
2023-01-21T16:35:01.260Z,2.50
2023-01-21T16:37:30.073Z,2.50
2023-01-21T16:40:29.308Z,2.50
2023-01-21T16:43:21.982Z,2.50
2023-01-21T16:45:56.817Z,2.40
2023-01-21T16:48:29.862Z,2.40
2023-01-21T16:50:57.438Z,2.40
2023-01-21T16:53:27.811Z,2.30
2023-01-21T16:55:59.318Z,2.30
2023-01-21T16:58:32.454Z,2.30
2023-01-21T17:01:19.951Z,2.30
2023-01-21T17:03:49.880Z,2.20
2023-01-21T17:06:22.237Z,2.30
2023-01-21T17:08:55.347Z,2.30
2023-01-21T17:11:32.525Z,2.30
2023-01-21T17:14:10.983Z,2.20
2023-01-21T17:16:40.780Z,2.20
2023-01-21T17:19:18.286Z,2.20
2023-01-21T17:21:55.486Z,2.20
2023-01-21T17:24:29.829Z,2.20
2023-01-21T17:27:02.642Z,2.10
2023-01-21T17:29:32.799Z,2.10
2023-01-21T17:32:06.041Z,2.10
2023-01-21T17:34:36.990Z,2.10
2023-01-21T17:37:43.157Z,2.20
2023-01-21T17:40:39.973Z,2.20
2023-01-21T17:43:18.205Z,2.20
2023-01-21T17:45:50.135Z,2.20
2023-01-21T17:48:30.827Z,2.20
2023-01-21T17:51:30.726Z,2.20
2023-01-21T17:54:09.564Z,2.20
2023-01-21T17:56:58.119Z,2.20
2023-01-21T17:59:38.134Z,2.20
2023-01-21T18:02:09.537Z,2.20
2023-01-21T18:04:36.774Z,2.20
2023-01-21T18:07:13.306Z,2.20
2023-01-21T18:09:41.493Z,2.20
2023-01-21T18:12:14.127Z,2.20
2023-01-21T18:14:41.814Z,2.20
2023-01-21T18:17:21.316Z,2.20
2023-01-21T18:19:48.528Z,2.20
2023-01-21T18:22:30.291Z,2.20
2023-01-21T18:25:02.842Z,2.20
2023-01-21T18:27:31.394Z,2.20
2023-01-21T18:29:59.239Z,2.20
2023-01-21T18:32:31.196Z,2.20
2023-01-21T18:35:00.692Z,2.20
2023-01-21T18:37:32.285Z,2.30
2023-01-21T18:39:59.390Z,2.30
2023-01-21T18:42:26.913Z,2.30
2023-01-21T18:44:54.034Z,2.30
2023-01-21T18:47:23.460Z,2.30
2023-01-21T18:49:51.163Z,2.40
2023-01-21T18:52:23.195Z,2.30
2023-01-21T18:54:52.670Z,2.30
2023-01-21T18:57:22.376Z,2.30
2023-01-21T18:59:49.663Z,2.30
2023-01-21T19:02:21.549Z,2.30
2023-01-21T19:04:50.820Z,2.30
2023-01-21T19:07:22.635Z,2.30
2023-01-21T19:09:51.171Z,2.30
2023-01-21T19:12:21.102Z,2.30
2023-01-21T19:14:48.868Z,2.30
2023-01-21T19:17:27.097Z,2.30
2023-01-21T19:19:57.977Z,2.30
2023-01-21T19:22:27.759Z,2.30
2023-01-21T19:24:54.974Z,2.30
2023-01-21T19:27:35.277Z,2.30
2023-01-21T19:30:21.577Z,2.20
2023-01-21T19:32:52.770Z,2.20
2023-01-21T19:35:26.522Z,2.30
2023-01-21T19:37:56.278Z,2.30
2023-01-21T19:40:26.502Z,2.20
2023-01-21T19:42:56.729Z,2.20
2023-01-21T19:45:29.374Z,2.30
2023-01-21T19:47:56.690Z,2.30
2023-01-21T19:50:26.621Z,2.30
2023-01-21T19:52:55.066Z,2.30
2023-01-21T19:55:24.873Z,2.20
2023-01-21T19:57:58.193Z,2.20
2023-01-21T20:00:34.814Z,2.20
2023-01-21T20:03:04.574Z,2.10
2023-01-21T20:05:35.659Z,2.20
2023-01-21T20:08:03.059Z,2.20
2023-01-21T20:10:31.534Z,2.30
2023-01-21T20:12:58.914Z,2.20
2023-01-21T20:15:34.273Z,2.20
2023-01-21T20:18:06.724Z,2.20
2023-01-21T20:20:36.388Z,2.10
2023-01-21T20:23:03.610Z,2.10
2023-01-21T20:25:38.806Z,2.10
2023-01-21T20:28:21.084Z,2.10
2023-01-21T20:30:49.789Z,2.00
2023-01-21T20:33:22.121Z,2.00
2023-01-21T20:35:56.846Z,2.00
2023-01-21T20:38:30.159Z,2.00
2023-01-21T20:40:58.265Z,2.00
2023-01-21T20:43:25.486Z,2.00
2023-01-21T20:46:02.366Z,2.00
2023-01-21T20:48:38.936Z,2.00
2023-01-21T20:51:06.527Z,1.90
2023-01-21T20:53:33.720Z,1.90
2023-01-21T20:56:06.644Z,2.00
2023-01-21T20:58:33.793Z,1.90
2023-01-21T21:01:03.185Z,1.90
2023-01-21T21:03:30.354Z,2.00
2023-01-21T21:05:59.954Z,1.90
2023-01-21T21:08:27.104Z,1.90
2023-01-21T21:10:55.384Z,2.00
2023-01-21T21:13:24.897Z,2.00
2023-01-21T21:15:53.283Z,2.00
2023-01-21T21:18:20.428Z,1.90
2023-01-21T21:20:50.782Z,1.80
2023-01-21T21:23:20.974Z,1.90
2023-01-21T21:25:49.394Z,1.90
2023-01-21T21:28:21.292Z,1.90
2023-01-21T21:30:50.811Z,2.00
2023-01-21T21:33:20.820Z,1.90
2023-01-21T21:35:48.383Z,2.00
2023-01-21T21:38:23.052Z,2.00
2023-01-21T21:40:53.231Z,2.00
2023-01-21T21:43:40.839Z,2.00
2023-01-21T21:46:27.512Z,2.00
2023-01-21T21:48:54.687Z,2.00
2023-01-21T21:51:31.738Z,1.90
2023-01-21T21:54:01.550Z,2.00
2023-01-21T21:56:28.691Z,1.90
2023-01-21T21:58:55.860Z,2.00
2023-01-21T22:01:31.140Z,2.00
2023-01-21T22:04:02.785Z,2.00
2023-01-21T22:06:32.593Z,2.00
2023-01-21T22:09:03.643Z,2.00
2023-01-21T22:11:33.467Z,2.00
2023-01-21T22:14:06.918Z,2.00
2023-01-21T22:16:36.504Z,2.00
2023-01-21T22:19:03.768Z,2.00
2023-01-21T22:21:33.336Z,2.00
2023-01-21T22:24:08.381Z,2.10
2023-01-21T22:26:35.869Z,2.10
2023-01-21T22:29:06.240Z,2.10
2023-01-21T22:31:33.613Z,2.00
2023-01-21T22:34:07.669Z,2.00
2023-01-21T22:36:34.916Z,2.00
2023-01-21T22:39:07.370Z,2.00
2023-01-21T22:41:37.027Z,2.00
2023-01-21T22:44:11.444Z,2.00
2023-01-21T22:46:38.642Z,2.00
2023-01-21T22:49:07.898Z,2.00
2023-01-21T22:51:35.031Z,2.00
2023-01-21T22:54:02.305Z,1.90
2023-01-21T22:56:50.324Z,1.90
2023-01-21T22:59:17.035Z,1.90
2023-01-21T23:01:48.668Z,1.90
2023-01-21T23:04:18.387Z,2.00
2023-01-21T23:06:48.922Z,1.90
2023-01-21T23:09:20.574Z,1.90
2023-01-21T23:11:52.575Z,1.90
2023-01-21T23:14:20.152Z,1.90
2023-01-21T23:16:47.323Z,1.90
2023-01-21T23:19:19.705Z,2.00
2023-01-21T23:21:46.890Z,2.00
2023-01-21T23:24:18.514Z,2.00
2023-01-21T23:26:48.123Z,1.90
2023-01-21T23:29:15.298Z,2.00
2023-01-21T23:31:42.675Z,2.00
2023-01-21T23:34:14.369Z,2.00
2023-01-21T23:36:41.554Z,2.00
2023-01-21T23:39:11.389Z,2.00
2023-01-21T23:41:38.542Z,1.90
2023-01-21T23:44:10.556Z,1.90
2023-01-21T23:46:40.485Z,1.80
2023-01-21T23:49:10.103Z,1.80
2023-01-21T23:51:41.764Z,1.80
2023-01-21T23:54:14.014Z,1.80
2023-01-21T23:56:41.352Z,1.80
2023-01-21T23:59:11.862Z,1.80
